sensor_id;sensor_type;location;lat;lon;timestamp;temperature;humidity
35593;DHT22;64447;52.140;5.602;2023-02-27T00:02:10;2.60;85.90
35593;DHT22;64447;52.140;5.602;2023-02-27T00:04:36;2.60;85.20
35593;DHT22;64447;52.140;5.602;2023-02-27T00:07:02;2.70;85.30
35593;DHT22;64447;52.140;5.602;2023-02-27T00:09:27;2.60;85.40
35593;DHT22;64447;52.140;5.602;2023-02-27T00:11:53;2.60;85.50
35593;DHT22;64447;52.140;5.602;2023-02-27T00:14:19;2.60;85.60
35593;DHT22;64447;52.140;5.602;2023-02-27T00:20:08;2.60;85.80
35593;DHT22;64447;52.140;5.602;2023-02-27T00:22:36;2.60;86.10
35593;DHT22;64447;52.140;5.602;2023-02-27T00:25:02;2.50;86.10
35593;DHT22;64447;52.140;5.602;2023-02-27T00:27:27;2.50;86.30
35593;DHT22;64447;52.140;5.602;2023-02-27T00:29:53;2.50;86.10
35593;DHT22;64447;52.140;5.602;2023-02-27T00:32:19;2.50;86.00
35593;DHT22;64447;52.140;5.602;2023-02-27T00:34:45;2.40;86.40
35593;DHT22;64447;52.140;5.602;2023-02-27T00:37:10;2.40;86.60
35593;DHT22;64447;52.140;5.602;2023-02-27T00:39:36;2.40;86.70
35593;DHT22;64447;52.140;5.602;2023-02-27T00:42:02;2.40;86.60
35593;DHT22;64447;52.140;5.602;2023-02-27T00:44:27;2.40;86.50
35593;DHT22;64447;52.140;5.602;2023-02-27T00:50:15;2.30;86.40
35593;DHT22;64447;52.140;5.602;2023-02-27T00:52:40;2.30;88.50
35593;DHT22;64447;52.140;5.602;2023-02-27T00:55:06;2.30;90.00
35593;DHT22;64447;52.140;5.602;2023-02-27T00:57:32;2.20;88.10
35593;DHT22;64447;52.140;5.602;2023-02-27T00:59:58;2.10;86.60
35593;DHT22;64447;52.140;5.602;2023-02-27T01:02:23;2.20;86.70
35593;DHT22;64447;52.140;5.602;2023-02-27T01:04:49;2.20;86.90
35593;DHT22;64447;52.140;5.602;2023-02-27T01:07:15;2.10;86.90
35593;DHT22;64447;52.140;5.602;2023-02-27T01:09:41;2.10;86.90
35593;DHT22;64447;52.140;5.602;2023-02-27T01:12:07;2.10;87.10
35593;DHT22;64447;52.140;5.602;2023-02-27T01:14:33;2.00;87.40
35593;DHT22;64447;52.140;5.602;2023-02-27T01:20:20;2.00;87.20
35593;DHT22;64447;52.140;5.602;2023-02-27T01:22:46;2.80;87.60
35593;DHT22;64447;52.140;5.602;2023-02-27T01:25:11;2.00;87.60
35593;DHT22;64447;52.140;5.602;2023-02-27T01:27:37;1.90;87.30
35593;DHT22;64447;52.140;5.602;2023-02-27T01:30:03;1.90;87.50
35593;DHT22;64447;52.140;5.602;2023-02-27T01:32:29;1.90;88.30
35593;DHT22;64447;52.140;5.602;2023-02-27T01:34:54;1.90;87.70
35593;DHT22;64447;52.140;5.602;2023-02-27T01:37:20;1.90;87.60
35593;DHT22;64447;52.140;5.602;2023-02-27T01:39:45;1.90;87.70
35593;DHT22;64447;52.140;5.602;2023-02-27T01:42:22;1.90;87.70
35593;DHT22;64447;52.140;5.602;2023-02-27T01:47:33;1.80;87.90
35593;DHT22;64447;52.140;5.602;2023-02-27T01:49:59;1.80;88.30
35593;DHT22;64447;52.140;5.602;2023-02-27T01:52:25;1.80;88.20
35593;DHT22;64447;52.140;5.602;2023-02-27T01:54:51;1.80;88.20
35593;DHT22;64447;52.140;5.602;2023-02-27T01:57:17;1.70;88.00
35593;DHT22;64447;52.140;5.602;2023-02-27T01:59:43;1.70;87.80
35593;DHT22;64447;52.140;5.602;2023-02-27T02:05:30;1.50;88.70
35593;DHT22;64447;52.140;5.602;2023-02-27T02:07:56;1.60;90.00
35593;DHT22;64447;52.140;5.602;2023-02-27T02:10:23;1.20;89.80
35593;DHT22;64447;52.140;5.602;2023-02-27T02:12:49;1.50;89.60
35593;DHT22;64447;52.140;5.602;2023-02-27T02:15:15;1.50;89.40
35593;DHT22;64447;52.140;5.602;2023-02-27T02:18:00;1.50;89.10
35593;DHT22;64447;52.140;5.602;2023-02-27T03:20:05;0.40;93.30
35593;DHT22;64447;52.140;5.602;2023-02-27T03:22:37;0.60;93.00
35593;DHT22;64447;52.140;5.602;2023-02-27T03:25:07;0.70;92.50
35593;DHT22;64447;52.140;5.602;2023-02-27T03:27:42;0.80;92.20
35593;DHT22;64447;52.140;5.602;2023-02-27T03:33:35;1.00;91.80
35593;DHT22;64447;52.140;5.602;2023-02-27T03:36:07;1.10;91.60
35593;DHT22;64447;52.140;5.602;2023-02-27T03:38:59;1.10;91.70
35593;DHT22;64447;52.140;5.602;2023-02-27T03:41:33;1.10;91.70
35593;DHT22;64447;52.140;5.602;2023-02-27T03:44:34;1.10;91.40
35593;DHT22;64447;52.140;5.602;2023-02-27T03:50:27;0.80;91.50
35593;DHT22;64447;52.140;5.602;2023-02-27T03:52:52;0.80;91.90
35593;DHT22;64447;52.140;5.602;2023-02-27T03:55:24;0.80;91.90
35593;DHT22;64447;52.140;5.602;2023-02-27T03:57:52;0.90;91.80
35593;DHT22;64447;52.140;5.602;2023-02-27T04:00:21;1.00;91.80
35593;DHT22;64447;52.140;5.602;2023-02-27T04:02:50;1.00;91.50
35593;DHT22;64447;52.140;5.602;2023-02-27T04:05:16;1.40;91.50
35593;DHT22;64447;52.140;5.602;2023-02-27T04:21:46;1.00;91.10
35593;DHT22;64447;52.140;5.602;2023-02-27T04:24:39;1.00;91.40
35593;DHT22;64447;52.140;5.602;2023-02-27T04:33:21;0.70;91.70
35593;DHT22;64447;52.140;5.602;2023-02-27T04:35:52;0.70;91.80
35593;DHT22;64447;52.140;5.602;2023-02-27T04:38:29;0.70;91.60
35593;DHT22;64447;52.140;5.602;2023-02-27T04:40:58;0.70;91.40
35593;DHT22;64447;52.140;5.602;2023-02-27T04:43:26;0.60;91.20
35593;DHT22;64447;52.140;5.602;2023-02-27T04:51:57;0.60;91.40
35593;DHT22;64447;52.140;5.602;2023-02-27T04:54:45;0.50;91.40
35593;DHT22;64447;52.140;5.602;2023-02-27T04:57:18;0.50;91.30
35593;DHT22;64447;52.140;5.602;2023-02-27T04:59:50;0.50;91.20
35593;DHT22;64447;52.140;5.602;2023-02-27T05:05:40;0.50;91.40
35593;DHT22;64447;52.140;5.602;2023-02-27T05:08:21;0.40;91.40
35593;DHT22;64447;52.140;5.602;2023-02-27T05:10:52;0.50;91.40
35593;DHT22;64447;52.140;5.602;2023-02-27T05:13:26;0.50;91.50
35593;DHT22;64447;52.140;5.602;2023-02-27T05:16:16;0.50;91.60
35593;DHT22;64447;52.140;5.602;2023-02-27T05:18:44;0.50;91.60
35593;DHT22;64447;52.140;5.602;2023-02-27T05:24:05;0.50;91.50
35593;DHT22;64447;52.140;5.602;2023-02-27T05:26:40;0.40;91.60
35593;DHT22;64447;52.140;5.602;2023-02-27T05:32:38;0.40;91.70
35593;DHT22;64447;52.140;5.602;2023-02-27T05:35:37;0.30;91.50
35593;DHT22;64447;52.140;5.602;2023-02-27T05:38:11;0.30;91.70
35593;DHT22;64447;52.140;5.602;2023-02-27T05:40:59;0.30;91.80
35593;DHT22;64447;52.140;5.602;2023-02-27T05:43:35;0.30;91.90
35593;DHT22;64447;52.140;5.602;2023-02-27T05:49:30;0.20;92.10
35593;DHT22;64447;52.140;5.602;2023-02-27T05:51:59;0.20;92.50
35593;DHT22;64447;52.140;5.602;2023-02-27T05:54:43;0.20;92.20
35593;DHT22;64447;52.140;5.602;2023-02-27T05:57:17;0.20;92.20
35593;DHT22;64447;52.140;5.602;2023-02-27T05:59:53;0.10;92.20
35593;DHT22;64447;52.140;5.602;2023-02-27T06:05:43;0.10;92.50
35593;DHT22;64447;52.140;5.602;2023-02-27T06:08:09;0.60;92.70
35593;DHT22;64447;52.140;5.602;2023-02-27T06:10:35;0.20;92.60
35593;DHT22;64447;52.140;5.602;2023-02-27T06:13:01;0.20;92.80
35593;DHT22;64447;52.140;5.602;2023-02-27T06:15:27;0.40;92.80
35593;DHT22;64447;52.140;5.602;2023-02-27T06:21:14;0.20;92.30
35593;DHT22;64447;52.140;5.602;2023-02-27T06:23:40;1.10;92.50
35593;DHT22;64447;52.140;5.602;2023-02-27T06:26:06;0.20;92.10
35593;DHT22;64447;52.140;5.602;2023-02-27T06:28:31;0.30;92.20
35593;DHT22;64447;52.140;5.602;2023-02-27T06:30:57;0.30;92.30
35593;DHT22;64447;52.140;5.602;2023-02-27T06:33:25;0.30;92.40
35593;DHT22;64447;52.140;5.602;2023-02-27T06:35:51;0.60;92.40
35593;DHT22;64447;52.140;5.602;2023-02-27T06:38:17;0.50;92.10
35593;DHT22;64447;52.140;5.602;2023-02-27T06:40:42;0.20;92.30
35593;DHT22;64447;52.140;5.602;2023-02-27T06:43:08;0.20;92.10
35593;DHT22;64447;52.140;5.602;2023-02-27T06:45:34;0.20;92.20
35593;DHT22;64447;52.140;5.602;2023-02-27T06:51:35;0.10;92.60
35593;DHT22;64447;52.140;5.602;2023-02-27T06:54:00;0.10;92.50
35593;DHT22;64447;52.140;5.602;2023-02-27T06:56:26;0.10;92.60
35593;DHT22;64447;52.140;5.602;2023-02-27T06:58:52;0.10;92.60
35593;DHT22;64447;52.140;5.602;2023-02-27T07:01:17;0.20;92.40
35593;DHT22;64447;52.140;5.602;2023-02-27T07:03:43;0.20;92.30
35593;DHT22;64447;52.140;5.602;2023-02-27T07:06:09;0.20;92.20
35593;DHT22;64447;52.140;5.602;2023-02-27T07:08:35;0.20;92.20
35593;DHT22;64447;52.140;5.602;2023-02-27T07:11:01;0.20;92.20
35593;DHT22;64447;52.140;5.602;2023-02-27T07:13:26;0.20;92.10
35593;DHT22;64447;52.140;5.602;2023-02-27T07:15:52;0.20;92.10
35593;DHT22;64447;52.140;5.602;2023-02-27T07:21:40;0.40;91.90
35593;DHT22;64447;52.140;5.602;2023-02-27T07:24:06;0.30;92.10
35593;DHT22;64447;52.140;5.602;2023-02-27T07:26:31;0.40;92.30
35593;DHT22;64447;52.140;5.602;2023-02-27T07:28:57;0.40;92.30
35593;DHT22;64447;52.140;5.602;2023-02-27T07:31:23;0.40;92.20
35593;DHT22;64447;52.140;5.602;2023-02-27T07:33:48;1.40;92.50
35593;DHT22;64447;52.140;5.602;2023-02-27T07:36:14;0.50;92.20
35593;DHT22;64447;52.140;5.602;2023-02-27T07:38:40;0.60;92.20
35593;DHT22;64447;52.140;5.602;2023-02-27T07:41:05;0.60;92.70
35593;DHT22;64447;52.140;5.602;2023-02-27T07:43:31;0.30;93.80
35593;DHT22;64447;52.140;5.602;2023-02-27T07:45:56;0.30;94.50
35593;DHT22;64447;52.140;5.602;2023-02-27T07:51:44;0.30;94.90
35593;DHT22;64447;52.140;5.602;2023-02-27T07:54:09;0.30;95.20
35593;DHT22;64447;52.140;5.602;2023-02-27T07:56:35;0.30;95.60
35593;DHT22;64447;52.140;5.602;2023-02-27T07:59:01;0.30;96.00
35593;DHT22;64447;52.140;5.602;2023-02-27T08:01:26;0.40;95.70
35593;DHT22;64447;52.140;5.602;2023-02-27T08:03:52;0.50;95.50
35593;DHT22;64447;52.140;5.602;2023-02-27T08:06:17;0.40;96.00
35593;DHT22;64447;52.140;5.602;2023-02-27T08:08:43;0.20;96.80
35593;DHT22;64447;52.140;5.602;2023-02-27T08:11:10;0.20;96.80
35593;DHT22;64447;52.140;5.602;2023-02-27T08:13:35;0.30;97.40
35593;DHT22;64447;52.140;5.602;2023-02-27T08:16:01;0.50;97.30
35593;DHT22;64447;52.140;5.602;2023-02-27T08:21:48;1.00;96.60
35593;DHT22;64447;52.140;5.602;2023-02-27T08:24:14;1.50;96.40
35593;DHT22;64447;52.140;5.602;2023-02-27T08:26:39;1.10;95.80
35593;DHT22;64447;52.140;5.602;2023-02-27T08:29:05;2.00;96.40
35593;DHT22;64447;52.140;5.602;2023-02-27T08:31:30;1.20;95.80
35593;DHT22;64447;52.140;5.602;2023-02-27T08:33:56;1.10;96.10
35593;DHT22;64447;52.140;5.602;2023-02-27T08:36:22;1.20;95.90
35593;DHT22;64447;52.140;5.602;2023-02-27T08:38:47;1.20;96.20
35593;DHT22;64447;52.140;5.602;2023-02-27T08:41:13;1.10;96.10
35593;DHT22;64447;52.140;5.602;2023-02-27T08:43:39;1.10;96.30
35593;DHT22;64447;52.140;5.602;2023-02-27T08:46:05;1.20;96.40
35593;DHT22;64447;52.140;5.602;2023-02-27T08:51:52;1.40;96.00
35593;DHT22;64447;52.140;5.602;2023-02-27T08:54:18;1.30;96.40
35593;DHT22;64447;52.140;5.602;2023-02-27T08:56:45;1.30;96.70
35593;DHT22;64447;52.140;5.602;2023-02-27T08:59:11;1.30;96.50
35593;DHT22;64447;52.140;5.602;2023-02-27T09:01:37;1.30;97.00
35593;DHT22;64447;52.140;5.602;2023-02-27T09:04:03;1.40;96.70
35593;DHT22;64447;52.140;5.602;2023-02-27T09:06:29;1.40;96.70
35593;DHT22;64447;52.140;5.602;2023-02-27T09:08:56;1.60;96.80
35593;DHT22;64447;52.140;5.602;2023-02-27T09:11:23;1.60;96.70
35593;DHT22;64447;52.140;5.602;2023-02-27T09:13:49;1.70;96.60
35593;DHT22;64447;52.140;5.602;2023-02-27T09:16:16;1.90;96.60
35593;DHT22;64447;52.140;5.602;2023-02-27T09:22:04;2.10;96.20
35593;DHT22;64447;52.140;5.602;2023-02-27T09:24:29;2.20;96.00
35593;DHT22;64447;52.140;5.602;2023-02-27T09:26:55;2.30;95.80
35593;DHT22;64447;52.140;5.602;2023-02-27T09:29:20;2.40;95.40
35593;DHT22;64447;52.140;5.602;2023-02-27T09:31:48;2.50;95.10
35593;DHT22;64447;52.140;5.602;2023-02-27T09:34:13;2.50;94.50
35593;DHT22;64447;52.140;5.602;2023-02-27T09:36:39;2.60;94.50
35593;DHT22;64447;52.140;5.602;2023-02-27T09:39:05;2.70;94.50
35593;DHT22;64447;52.140;5.602;2023-02-27T09:41:36;2.80;94.30
35593;DHT22;64447;52.140;5.602;2023-02-27T09:46:56;3.00;93.00
35593;DHT22;64447;52.140;5.602;2023-02-27T09:49:26;3.10;92.70
35593;DHT22;64447;52.140;5.602;2023-02-27T09:51:56;3.50;92.20
35593;DHT22;64447;52.140;5.602;2023-02-27T09:54:22;3.20;92.50
35593;DHT22;64447;52.140;5.602;2023-02-27T09:59:34;3.40;90.40
35593;DHT22;64447;52.140;5.602;2023-02-27T10:10:59;3.80;90.40
35593;DHT22;64447;52.140;5.602;2023-02-27T10:15:58;4.10;84.50
35593;DHT22;64447;52.140;5.602;2023-02-27T10:18:29;4.50;82.80
35593;DHT22;64447;52.140;5.602;2023-02-27T10:21:09;4.30;81.50
35593;DHT22;64447;52.140;5.602;2023-02-27T10:23:51;4.30;79.90
35593;DHT22;64447;52.140;5.602;2023-02-27T10:26:30;4.40;80.40
35593;DHT22;64447;52.140;5.602;2023-02-27T10:28:58;4.60;75.90
35593;DHT22;64447;52.140;5.602;2023-02-27T10:31:30;4.40;75.50
35593;DHT22;64447;52.140;5.602;2023-02-27T10:33:59;4.40;74.50
35593;DHT22;64447;52.140;5.602;2023-02-27T10:36:25;4.40;73.00
35593;DHT22;64447;52.140;5.602;2023-02-27T10:39:04;4.50;73.30
35593;DHT22;64447;52.140;5.602;2023-02-27T10:41:30;4.50;71.60
35593;DHT22;64447;52.140;5.602;2023-02-27T10:43:58;4.60;70.50
35593;DHT22;64447;52.140;5.602;2023-02-27T10:46:27;4.60;71.10
35593;DHT22;64447;52.140;5.602;2023-02-27T10:48:53;4.60;70.50
35593;DHT22;64447;52.140;5.602;2023-02-27T10:51:27;4.60;70.40
35593;DHT22;64447;52.140;5.602;2023-02-27T10:56:39;4.70;69.50
35593;DHT22;64447;52.140;5.602;2023-02-27T10:59:10;4.80;69.40
35593;DHT22;64447;52.140;5.602;2023-02-27T11:07:50;5.00;66.20
35593;DHT22;64447;52.140;5.602;2023-02-27T11:10:23;5.00;65.00
35593;DHT22;64447;52.140;5.602;2023-02-27T11:13:04;5.10;65.70
35593;DHT22;64447;52.140;5.602;2023-02-27T11:15:33;5.20;66.80
35593;DHT22;64447;52.140;5.602;2023-02-27T11:24:01;5.10;63.70
35593;DHT22;64447;52.140;5.602;2023-02-27T11:26:33;5.10;64.00
35593;DHT22;64447;52.140;5.602;2023-02-27T11:31:45;5.10;65.80
35593;DHT22;64447;52.140;5.602;2023-02-27T11:37:35;5.30;65.30
35593;DHT22;64447;52.140;5.602;2023-02-27T11:42:43;5.30;65.00
35593;DHT22;64447;52.140;5.602;2023-02-27T11:45:29;5.40;66.20
35593;DHT22;64447;52.140;5.602;2023-02-27T11:48:01;5.40;65.10
35593;DHT22;64447;52.140;5.602;2023-02-27T11:51:07;5.40;63.10
35593;DHT22;64447;52.140;5.602;2023-02-27T11:53:59;5.40;64.60
35593;DHT22;64447;52.140;5.602;2023-02-27T11:56:38;5.40;64.40
35593;DHT22;64447;52.140;5.602;2023-02-27T12:04:45;5.50;63.40
35593;DHT22;64447;52.140;5.602;2023-02-27T12:21:50;5.60;62.70
35593;DHT22;64447;52.140;5.602;2023-02-27T12:24:19;5.60;62.70
35593;DHT22;64447;52.140;5.602;2023-02-27T12:26:49;6.30;62.60
35593;DHT22;64447;52.140;5.602;2023-02-27T12:32:24;5.90;62.40
35593;DHT22;64447;52.140;5.602;2023-02-27T12:38:31;5.90;62.70
35593;DHT22;64447;52.140;5.602;2023-02-27T12:41:15;6.00;64.00
35593;DHT22;64447;52.140;5.602;2023-02-27T12:55:43;6.60;65.60
35593;DHT22;64447;52.140;5.602;2023-02-27T13:00:59;6.50;66.90
35593;DHT22;64447;52.140;5.602;2023-02-27T13:09:09;6.20;65.00
35593;DHT22;64447;52.140;5.602;2023-02-27T13:14:48;6.10;66.20
35593;DHT22;64447;52.140;5.602;2023-02-27T13:17:20;6.00;65.40
35593;DHT22;64447;52.140;5.602;2023-02-27T13:25:48;6.20;68.80
35593;DHT22;64447;52.140;5.602;2023-02-27T13:28:19;6.30;68.90
35593;DHT22;64447;52.140;5.602;2023-02-27T13:31:14;6.30;68.90
35593;DHT22;64447;52.140;5.602;2023-02-27T13:33:47;6.30;68.10
35593;DHT22;64447;52.140;5.602;2023-02-27T13:36:26;6.50;67.20
35593;DHT22;64447;52.140;5.602;2023-02-27T13:38:55;6.40;64.90
35593;DHT22;64447;52.140;5.602;2023-02-27T13:46:43;6.40;65.30
35593;DHT22;64447;52.140;5.602;2023-02-27T13:49:22;6.30;65.10
35593;DHT22;64447;52.140;5.602;2023-02-27T13:51:51;6.30;66.70
35593;DHT22;64447;52.140;5.602;2023-02-27T13:54:38;6.50;66.20
35593;DHT22;64447;52.140;5.602;2023-02-27T13:57:07;6.60;66.00
35593;DHT22;64447;52.140;5.602;2023-02-27T13:59:38;6.80;66.50
35593;DHT22;64447;52.140;5.602;2023-02-27T14:04:56;6.80;66.10
35593;DHT22;64447;52.140;5.602;2023-02-27T14:07:27;6.80;65.60
35593;DHT22;64447;52.140;5.602;2023-02-27T14:10:04;6.50;66.30
35593;DHT22;64447;52.140;5.602;2023-02-27T14:12:40;6.50;66.40
35593;DHT22;64447;52.140;5.602;2023-02-27T14:21:53;6.40;65.90
35593;DHT22;64447;52.140;5.602;2023-02-27T14:24:36;6.40;64.60
35593;DHT22;64447;52.140;5.602;2023-02-27T14:27:14;6.40;64.70
35593;DHT22;64447;52.140;5.602;2023-02-27T14:29:43;6.50;65.40
35593;DHT22;64447;52.140;5.602;2023-02-27T14:32:36;6.90;67.10
35593;DHT22;64447;52.140;5.602;2023-02-27T14:38:25;6.70;68.00
35593;DHT22;64447;52.140;5.602;2023-02-27T14:41:16;6.90;66.50
35593;DHT22;64447;52.140;5.602;2023-02-27T14:43:51;6.70;64.80
35593;DHT22;64447;52.140;5.602;2023-02-27T14:46:27;6.50;65.00
35593;DHT22;64447;52.140;5.602;2023-02-27T14:48:55;6.40;65.80
35593;DHT22;64447;52.140;5.602;2023-02-27T14:51:23;6.90;66.50
35593;DHT22;64447;52.140;5.602;2023-02-27T14:54:04;7.20;66.00
35593;DHT22;64447;52.140;5.602;2023-02-27T14:56:30;6.40;64.50
35593;DHT22;64447;52.140;5.602;2023-02-27T14:58:56;6.30;66.70
35593;DHT22;64447;52.140;5.602;2023-02-27T15:01:24;6.30;65.60
35593;DHT22;64447;52.140;5.602;2023-02-27T15:03:56;6.30;67.30
35593;DHT22;64447;52.140;5.602;2023-02-27T15:06:43;6.40;67.20
35593;DHT22;64447;52.140;5.602;2023-02-27T15:09:37;6.50;66.60
35593;DHT22;64447;52.140;5.602;2023-02-27T15:12:08;6.60;67.00
35593;DHT22;64447;52.140;5.602;2023-02-27T15:14:37;6.80;65.60
35593;DHT22;64447;52.140;5.602;2023-02-27T15:17:21;6.70;64.40
35593;DHT22;64447;52.140;5.602;2023-02-27T15:19:52;6.60;63.80
35593;DHT22;64447;52.140;5.602;2023-02-27T15:22:24;6.60;65.10
35593;DHT22;64447;52.140;5.602;2023-02-27T15:24:53;6.50;64.90
35593;DHT22;64447;52.140;5.602;2023-02-27T15:27:22;6.90;65.70
35593;DHT22;64447;52.140;5.602;2023-02-27T15:32:30;6.80;67.10
35593;DHT22;64447;52.140;5.602;2023-02-27T15:35:02;6.30;67.90
35593;DHT22;64447;52.140;5.602;2023-02-27T15:37:31;6.30;68.60
35593;DHT22;64447;52.140;5.602;2023-02-27T15:39:58;6.30;68.90
35593;DHT22;64447;52.140;5.602;2023-02-27T15:42:27;6.30;69.20
35593;DHT22;64447;52.140;5.602;2023-02-27T15:44:54;6.50;70.70
35593;DHT22;64447;52.140;5.602;2023-02-27T15:47:25;6.40;68.80
35593;DHT22;64447;52.140;5.602;2023-02-27T15:52:26;6.30;66.40
35593;DHT22;64447;52.140;5.602;2023-02-27T15:55:00;6.30;67.00
35593;DHT22;64447;52.140;5.602;2023-02-27T15:57:26;6.30;67.30
35593;DHT22;64447;52.140;5.602;2023-02-27T15:59:54;6.20;67.60
35593;DHT22;64447;52.140;5.602;2023-02-27T16:02:29;6.20;67.20
35593;DHT22;64447;52.140;5.602;2023-02-27T16:04:55;6.20;68.10
35593;DHT22;64447;52.140;5.602;2023-02-27T16:07:26;6.30;67.50
35593;DHT22;64447;52.140;5.602;2023-02-27T16:09:59;6.30;67.80
35593;DHT22;64447;52.140;5.602;2023-02-27T16:12:35;6.20;68.20
35593;DHT22;64447;52.140;5.602;2023-02-27T16:15:21;6.20;68.00
35593;DHT22;64447;52.140;5.602;2023-02-27T16:20:45;6.20;68.00
35593;DHT22;64447;52.140;5.602;2023-02-27T16:23:18;6.20;68.40
35593;DHT22;64447;52.140;5.602;2023-02-27T16:26:30;6.20;69.20
35593;DHT22;64447;52.140;5.602;2023-02-27T16:29:00;6.30;68.80
35593;DHT22;64447;52.140;5.602;2023-02-27T16:31:31;6.20;68.80
35593;DHT22;64447;52.140;5.602;2023-02-27T16:37:27;6.10;68.70
35593;DHT22;64447;52.140;5.602;2023-02-27T16:39:54;6.00;69.70
35593;DHT22;64447;52.140;5.602;2023-02-27T16:42:20;6.00;69.90
35593;DHT22;64447;52.140;5.602;2023-02-27T16:44:46;5.90;70.00
35593;DHT22;64447;52.140;5.602;2023-02-27T16:47:11;6.30;70.40
35593;DHT22;64447;52.140;5.602;2023-02-27T16:52:59;5.90;70.30
35593;DHT22;64447;52.140;5.602;2023-02-27T16:55:25;5.80;70.60
35593;DHT22;64447;52.140;5.602;2023-02-27T16:57:51;5.90;71.00
35593;DHT22;64447;52.140;5.602;2023-02-27T17:00:18;5.80;71.20
35593;DHT22;64447;52.140;5.602;2023-02-27T17:02:44;5.70;71.30
35593;DHT22;64447;52.140;5.602;2023-02-27T17:08:41;5.70;71.90
35593;DHT22;64447;52.140;5.602;2023-02-27T17:11:08;5.80;72.30
35593;DHT22;64447;52.140;5.602;2023-02-27T17:13:34;5.70;72.60
35593;DHT22;64447;52.140;5.602;2023-02-27T17:16:04;6.60;73.50
35593;DHT22;64447;52.140;5.602;2023-02-27T17:18:31;5.60;72.80
35593;DHT22;64447;52.140;5.602;2023-02-27T17:24:18;5.50;74.10
35593;DHT22;64447;52.140;5.602;2023-02-27T17:26:44;5.60;74.00
35593;DHT22;64447;52.140;5.602;2023-02-27T17:29:09;5.70;73.60
35593;DHT22;64447;52.140;5.602;2023-02-27T17:31:36;5.70;73.70
35593;DHT22;64447;52.140;5.602;2023-02-27T17:34:03;5.80;73.60
35593;DHT22;64447;52.140;5.602;2023-02-27T17:39:51;6.00;73.30
35593;DHT22;64447;52.140;5.602;2023-02-27T17:42:17;6.20;72.10
35593;DHT22;64447;52.140;5.602;2023-02-27T17:44:46;6.10;72.50
35593;DHT22;64447;52.140;5.602;2023-02-27T17:47:12;6.00;72.70
35593;DHT22;64447;52.140;5.602;2023-02-27T17:49:38;6.60;73.10
35593;DHT22;64447;52.140;5.602;2023-02-27T17:52:03;6.20;72.50
35593;DHT22;64447;52.140;5.602;2023-02-27T17:54:31;6.30;71.60
35593;DHT22;64447;52.140;5.602;2023-02-27T17:56:57;6.80;71.60
35593;DHT22;64447;52.140;5.602;2023-02-27T17:59:23;6.50;71.30
35593;DHT22;64447;52.140;5.602;2023-02-27T18:01:48;6.80;71.20
35593;DHT22;64447;52.140;5.602;2023-02-27T18:04:14;7.50;71.20
35593;DHT22;64447;52.140;5.602;2023-02-27T18:10:05;6.70;70.40
35593;DHT22;64447;52.140;5.602;2023-02-27T18:12:31;6.70;70.80
35593;DHT22;64447;52.140;5.602;2023-02-27T18:14:57;6.80;71.00
35593;DHT22;64447;52.140;5.602;2023-02-27T18:17:22;6.70;70.40
35593;DHT22;64447;52.140;5.602;2023-02-27T18:19:48;6.50;70.90
35593;DHT22;64447;52.140;5.602;2023-02-27T18:22:13;6.50;71.30
35593;DHT22;64447;52.140;5.602;2023-02-27T18:24:42;6.50;71.30
35593;DHT22;64447;52.140;5.602;2023-02-27T18:27:08;6.50;71.70
35593;DHT22;64447;52.140;5.602;2023-02-27T18:29:34;6.50;71.50
35593;DHT22;64447;52.140;5.602;2023-02-27T18:32:01;7.10;71.60
35593;DHT22;64447;52.140;5.602;2023-02-27T18:34:26;6.40;70.90
35593;DHT22;64447;52.140;5.602;2023-02-27T18:40:14;6.40;71.60
35593;DHT22;64447;52.140;5.602;2023-02-27T18:42:40;6.40;71.80
35593;DHT22;64447;52.140;5.602;2023-02-27T18:45:07;6.30;72.00
35593;DHT22;64447;52.140;5.602;2023-02-27T18:47:33;6.30;72.20
35593;DHT22;64447;52.140;5.602;2023-02-27T18:49:58;6.40;71.80
35593;DHT22;64447;52.140;5.602;2023-02-27T18:52:24;6.20;71.90
35593;DHT22;64447;52.140;5.602;2023-02-27T18:54:50;6.80;72.30
35593;DHT22;64447;52.140;5.602;2023-02-27T18:57:15;6.30;72.10
35593;DHT22;64447;52.140;5.602;2023-02-27T18:59:41;6.30;72.10
35593;DHT22;64447;52.140;5.602;2023-02-27T19:02:15;6.20;72.60
35593;DHT22;64447;52.140;5.602;2023-02-27T19:04:41;6.20;72.60
35593;DHT22;64447;52.140;5.602;2023-02-27T19:10:29;6.10;73.30
35593;DHT22;64447;52.140;5.602;2023-02-27T19:12:56;6.00;73.60
35593;DHT22;64447;52.140;5.602;2023-02-27T19:15:22;6.00;73.70
35593;DHT22;64447;52.140;5.602;2023-02-27T19:17:48;5.90;74.10
35593;DHT22;64447;52.140;5.602;2023-02-27T19:20:13;6.20;74.80
35593;DHT22;64447;52.140;5.602;2023-02-27T19:22:41;5.70;75.30
35593;DHT22;64447;52.140;5.602;2023-02-27T19:25:06;5.50;76.20
35593;DHT22;64447;52.140;5.602;2023-02-27T19:27:33;5.30;77.60
35593;DHT22;64447;52.140;5.602;2023-02-27T19:29:58;6.30;78.60
35593;DHT22;64447;52.140;5.602;2023-02-27T19:32:26;5.40;77.90
35593;DHT22;64447;52.140;5.602;2023-02-27T19:34:52;5.50;77.80
35593;DHT22;64447;52.140;5.602;2023-02-27T19:37:18;5.50;77.50
35593;DHT22;64447;52.140;5.602;2023-02-27T19:39:44;5.30;78.20
35593;DHT22;64447;52.140;5.602;2023-02-27T19:42:10;6.20;79.00
35593;DHT22;64447;52.140;5.602;2023-02-27T19:44:36;5.30;78.80
35593;DHT22;64447;52.140;5.602;2023-02-27T19:47:02;5.40;79.10
35593;DHT22;64447;52.140;5.602;2023-02-27T19:49:28;5.30;79.60
35593;DHT22;64447;52.140;5.602;2023-02-27T19:55:16;5.20;80.60
35593;DHT22;64447;52.140;5.602;2023-02-27T19:57:41;5.30;81.70
35593;DHT22;64447;52.140;5.602;2023-02-27T20:00:08;5.10;81.70
35593;DHT22;64447;52.140;5.602;2023-02-27T20:02:34;5.10;82.20
35593;DHT22;64447;52.140;5.602;2023-02-27T20:04:59;4.90;82.50
35593;DHT22;64447;52.140;5.602;2023-02-27T20:07:27;5.00;82.80
35593;DHT22;64447;52.140;5.602;2023-02-27T20:09:54;5.10;82.30
35593;DHT22;64447;52.140;5.602;2023-02-27T20:12:20;5.10;82.40
35593;DHT22;64447;52.140;5.602;2023-02-27T20:14:45;5.10;82.10
35593;DHT22;64447;52.140;5.602;2023-02-27T20:17:12;4.90;82.60
35593;DHT22;64447;52.140;5.602;2023-02-27T20:19:37;4.80;83.80
35593;DHT22;64447;52.140;5.602;2023-02-27T20:25:25;4.80;83.80
35593;DHT22;64447;52.140;5.602;2023-02-27T20:27:50;5.10;84.30
35593;DHT22;64447;52.140;5.602;2023-02-27T20:30:16;4.70;84.50
35593;DHT22;64447;52.140;5.602;2023-02-27T20:32:42;4.60;85.50
35593;DHT22;64447;52.140;5.602;2023-02-27T20:35:10;4.60;86.10
35593;DHT22;64447;52.140;5.602;2023-02-27T20:37:36;5.00;86.20
35593;DHT22;64447;52.140;5.602;2023-02-27T20:40:02;4.50;86.50
35593;DHT22;64447;52.140;5.602;2023-02-27T20:42:28;4.40;86.60
35593;DHT22;64447;52.140;5.602;2023-02-27T20:44:54;4.80;86.60
35593;DHT22;64447;52.140;5.602;2023-02-27T20:47:19;4.70;86.00
35593;DHT22;64447;52.140;5.602;2023-02-27T20:49:45;5.20;85.80
35593;DHT22;64447;52.140;5.602;2023-02-27T20:55:32;4.50;86.50
35593;DHT22;64447;52.140;5.602;2023-02-27T20:57:58;4.20;88.20
35593;DHT22;64447;52.140;5.602;2023-02-27T21:00:24;4.00;89.00
35593;DHT22;64447;52.140;5.602;2023-02-27T21:02:51;4.10;89.20
35593;DHT22;64447;52.140;5.602;2023-02-27T21:05:17;4.80;89.30
35593;DHT22;64447;52.140;5.602;2023-02-27T21:07:43;4.10;89.10